Bemis, SD

4:26 PM CDT on April 24, 2017 (GMT -0500)
MAU009 | | Change Station

Elev 1990 ft 44.75 °N, 96.83 °W | Updated 14 minutes ago

Partly Cloudy
Partly Cloudy
69.0 °F
Feels Like 69.0 °F
N
0.0
Wind Variable Wind from South
Gusts 25.0 mph

Today
High -- | Low -- °F
--% Chance of Precip.
Yesterday
High -- | Low -- °F
Precip. -- in
Pressure 29.48 in
Visibility 10.0 miles
Clouds Few 11000 ft
Dew Point Not available.
Humidity Not available.
Rainfall in
Snow Depth Not available.
6:27 AM 8:24 PM
Waning Crescent, 4% visible
METAR KATY 242053Z AUTO 20012G20KT 10SM FEW110 17/06 A2948 RMK AO2 SLP982 6//// T01670056
Pressure 29.48 in
Visibility 10.0 miles
Clouds Few 11000 ft
Dew Point Not available.
Humidity Not available.
Rainfall in
Snow Depth Not available.
6:27 AM 8:24 PM
Waning Crescent, 4% visible
METAR KATY 242053Z AUTO 20012G20KT 10SM FEW110 17/06 A2948 RMK AO2 SLP982 6//// T01670056

Get Severe Weather Alerts

Thanks for signing up!

Be on the lookout for a verification email in your inbox.

You'll start receiving the daily forecast at 8 AM.

×

10-Day Weather Forecast

Almanac

Astronomy

Apr. 24, 2017 Rise Set
Actual Time
Civil Twilight
Nautical Twilight
Astronomical Twilight
Moon
Length of Visible Light
Length of Day
Tomorrow will be .
, % of the Moon is Illuminated

Today's Extremes

State Highs State Lows

Community

WunderPhotos

WunderBlog® & News

Nearby

Air Quality

  Air Quality AQ Index Pollutant
Not available.

Snow Depth

Station Depth Elevation

Earthquake Activity

City Distance Mag. Time & Date
Minimum magnitude displayed is 2.5.

Coastal Water Temperatures

Place Temperature

Stations

Nearby Weather Stations

Station Location Temp. Windchill Dew Point Humidity Wind Precip. Elev Updated Type
                   

Watches & Warnings

There are currently no watches in effect.